Time;durP1;ratioP1;P1;durP2;ratioP2;P2;SDS_P1;SDS_P2;PMS_P1;PMS_P2;Temp;Humidity;BMP_temperature;BMP_pressure;BME280_temperature;BME280_humidity;BME280_pressure;Samples;Min_cycle;Max_cycle;Signal;HPM_P1;HPM_P2
2022/07/06 00:01:19;;;;;;;3.95;1.23;;;;;;;15.23;70.39;101659.03;5012830;28;20037;-70
2022/07/06 00:03:44;;;;;;;4.40;1.35;;;;;;;15.21;70.71;101658.53;5056952;28;20162;-70
2022/07/06 00:06:10;;;;;;;2.10;0.90;;;;;;;15.16;70.66;101652.97;5040121;28;20028;-70
2022/07/06 00:08:35;;;;;;;3.78;1.20;;;;;;;15.15;71.24;101654.91;5040265;28;20037;-70
2022/07/06 00:11:01;;;;;;;2.70;0.95;;;;;;;15.14;70.24;101656.06;5057589;28;20388;-70
2022/07/06 00:13:27;;;;;;;4.90;1.20;;;;;;;15.08;70.49;101653.63;5079668;28;20033;-70
2022/07/06 00:15:52;;;;;;;4.60;1.00;;;;;;;15.07;70.01;101657.53;5039690;28;20035;-70
2022/07/06 00:18:18;;;;;;;4.60;1.17;;;;;;;14.98;70.76;101652.59;5023536;28;20037;-70
2022/07/06 00:20:43;;;;;;;4.10;0.98;;;;;;;14.97;70.75;101655.69;5040332;28;20025;-70
2022/07/06 00:23:09;;;;;;;5.25;1.23;;;;;;;14.92;71.26;101659.38;5039767;28;20095;-70
2022/07/06 00:25:34;;;;;;;5.07;1.20;;;;;;;14.85;71.07;101667.28;5023023;28;20025;-70
2022/07/06 00:28:00;;;;;;;3.20;1.02;;;;;;;14.85;71.06;101656.09;5022635;28;20112;-70
2022/07/06 00:30:25;;;;;;;4.65;1.25;;;;;;;14.80;71.35;101664.53;5039809;28;20036;-70
2022/07/06 00:32:51;;;;;;;3.53;1.35;;;;;;;14.77;71.90;101650.31;5039869;28;20028;-70
2022/07/06 00:35:16;;;;;;;3.97;1.17;;;;;;;14.74;71.75;101660.13;5023228;28;20400;-70
2022/07/06 00:37:42;;;;;;;5.35;1.10;;;;;;;14.72;71.79;101654.00;5056370;28;20051;-70
2022/07/06 00:40:07;;;;;;;3.60;1.02;;;;;;;14.68;71.53;101658.50;5022453;28;20029;-70
2022/07/06 00:42:43;;;;;;;5.97;1.27;;;;;;;14.65;71.35;101657.13;5039704;28;20027;-70
2022/07/06 00:45:09;;;;;;;4.70;1.20;;;;;;;14.60;71.71;101648.81;5021901;28;20036;-70
2022/07/06 00:47:35;;;;;;;4.05;1.40;;;;;;;14.59;71.17;101657.47;5007114;28;20056;-70
2022/07/06 00:52:45;;;;;;;4.88;1.80;;;;;;;14.46;72.30;101658.97;5056682;28;20090;-70
2022/07/06 00:55:11;;;;;;;4.35;1.40;;;;;;;14.45;72.97;101660.91;5058684;28;20470;-70
2022/07/06 00:57:37;;;;;;;6.13;1.50;;;;;;;14.42;72.83;101663.44;5055489;28;20040;-70
2022/07/06 01:00:04;;;;;;;4.15;1.20;;;;;;;14.38;73.68;101662.38;5055958;28;20470;-70
2022/07/06 01:02:33;;;;;;;6.82;1.50;;;;;;;14.38;73.69;101662.38;5056768;28;20028;-70
2022/07/06 01:04:59;;;;;;;3.90;1.38;;;;;;;14.35;74.00;101663.78;5038308;28;20026;-70
2022/07/06 01:07:25;;;;;;;6.90;1.58;;;;;;;14.34;74.20;101664.91;5022573;28;20484;-70
2022/07/06 01:09:50;;;;;;;4.70;1.35;;;;;;;14.29;74.54;101660.22;5006417;28;20493;-70
2022/07/06 01:12:16;;;;;;;4.13;1.30;;;;;;;14.28;74.88;101666.06;5038664;28;20036;-70
2022/07/06 01:14:42;;;;;;;5.10;1.45;;;;;;;14.27;74.83;101662.44;5038778;28;20029;-70
2022/07/06 01:17:07;;;;;;;5.00;1.67;;;;;;;14.22;74.65;101656.06;5054842;28;20032;-70
2022/07/06 01:19:33;;;;;;;3.78;1.55;;;;;;;14.21;74.94;101651.63;5038424;28;20116;-70
2022/07/06 01:21:59;;;;;;;4.30;1.33;;;;;;;14.21;75.35;101652.44;5038521;28;20036;-70
2022/07/06 01:24:25;;;;;;;7.40;1.48;;;;;;;14.20;74.93;101652.72;5038506;28;20024;-70
2022/07/06 01:26:50;;;;;;;6.22;1.45;;;;;;;14.18;74.73;101652.16;5054716;28;20025;-70
2022/07/06 01:29:16;;;;;;;5.95;1.50;;;;;;;14.16;75.25;101662.81;5005366;28;20033;-70
2022/07/06 01:31:48;;;;;;;7.07;1.90;;;;;;;14.08;75.49;101651.13;5022032;28;20433;-70
2022/07/06 01:34:14;;;;;;;4.70;1.55;;;;;;;14.07;75.90;101645.84;5022194;28;20370;-70
2022/07/06 01:36:39;;;;;;;5.70;1.75;;;;;;;14.06;75.49;101650.56;5056190;28;20032;-70
2022/07/06 01:39:05;;;;;;;5.15;1.38;;;;;;;14.08;75.95;101653.09;5037794;28;20052;-70
2022/07/06 01:41:30;;;;;;;2.88;1.38;;;;;;;14.09;75.18;101661.16;5038075;28;20036;-70
2022/07/06 01:43:56;;;;;;;6.10;1.55;;;;;;;14.05;74.33;101654.50;5055140;28;20443;-70
2022/07/06 01:46:21;;;;;;;3.85;1.35;;;;;;;14.07;74.66;101657.03;5021761;28;20108;-70
2022/07/06 01:48:47;;;;;;;4.10;1.40;;;;;;;14.01;74.40;101656.22;5022248;28;20024;-70
2022/07/06 01:51:12;;;;;;;3.28;1.10;;;;;;;14.01;74.94;101658.16;5019523;28;20025;-70
2022/07/06 01:53:38;;;;;;;4.63;1.35;;;;;;;14.00;74.38;101648.13;5045081;28;20056;-70
2022/07/06 01:56:04;;;;;;;4.70;1.30;;;;;;;13.92;74.21;101649.56;5056687;28;20035;-70
2022/07/06 01:58:29;;;;;;;5.65;1.38;;;;;;;13.90;74.62;101639.78;5058401;28;20542;-70
2022/07/06 02:00:55;;;;;;;5.85;1.55;;;;;;;13.92;75.20;101640.34;5058381;28;20035;-71
2022/07/06 02:03:20;;;;;;;4.57;1.50;;;;;;;13.91;75.63;101647.91;5058101;28;20028;-70
2022/07/06 02:05:46;;;;;;;3.78;1.58;;;;;;;13.86;74.62;101633.97;5076068;28;20024;-70
2022/07/06 02:08:11;;;;;;;3.47;1.38;;;;;;;13.85;75.30;101637.88;5057869;28;20524;-70
2022/07/06 02:10:37;;;;;;;3.90;1.27;;;;;;;13.84;74.90;101642.63;5070972;28;20044;-70
2022/07/06 02:13:02;;;;;;;4.63;1.30;;;;;;;13.83;75.04;101635.38;5074629;28;20029;-70
2022/07/06 02:15:28;;;;;;;4.32;1.30;;;;;;;13.82;74.56;101639.31;5075937;28;20032;-70
2022/07/06 02:17:53;;;;;;;3.60;1.33;;;;;;;13.77;74.68;101639.31;5075693;28;20025;-70
2022/07/06 02:20:19;;;;;;;4.22;1.20;;;;;;;13.77;75.00;101647.69;5052923;28;20473;-70
2022/07/06 02:22:44;;;;;;;5.05;1.30;;;;;;;13.76;74.26;101642.38;5055000;28;20025;-70
2022/07/06 02:25:09;;;;;;;2.42;1.00;;;;;;;13.73;74.27;101652.19;5057725;28;20085;-70
2022/07/06 02:27:35;;;;;;;2.63;1.20;;;;;;;13.74;74.29;101653.03;5057748;28;20537;-70
2022/07/06 02:30:01;;;;;;;6.38;1.50;;;;;;;13.71;74.51;101648.03;5057908;28;20021;-70
2022/07/06 02:32:26;;;;;;;3.00;1.35;;;;;;;13.64;74.06;101642.75;5057584;28;20036;-70
2022/07/06 02:34:52;;;;;;;3.60;1.20;;;;;;;13.63;74.08;101650.28;5070875;28;20025;-70
2022/07/06 02:37:18;;;;;;;5.15;1.27;;;;;;;13.62;74.00;101644.97;5057350;28;20024;-70
2022/07/06 02:39:43;;;;;;;3.72;1.50;;;;;;;13.58;74.30;101646.69;5075862;28;20049;-70
2022/07/06 02:42:09;;;;;;;6.47;1.60;;;;;;;13.56;74.45;101648.91;5074262;28;20484;-70
2022/07/06 02:44:34;;;;;;;4.35;1.30;;;;;;;13.53;74.25;101653.13;5090944;28;20090;-70
2022/07/06 02:47:00;;;;;;;4.40;1.30;;;;;;;13.55;74.34;101650.06;5040911;28;20033;-70
2022/07/06 02:49:25;;;;;;;4.47;1.38;;;;;;;13.50;74.52;101636.94;5066347;28;20046;-70
2022/07/06 02:51:51;;;;;;;4.30;1.20;;;;;;;13.45;74.00;101633.34;5076524;28;20031;-70
2022/07/06 02:54:16;;;;;;;4.30;1.42;;;;;;;13.43;74.57;101639.22;5059581;28;20053;-70
2022/07/06 02:56:41;;;;;;;4.18;1.45;;;;;;;13.41;74.11;101631.13;5077038;28;20041;-70
2022/07/06 02:59:07;;;;;;;3.42;1.08;;;;;;;13.38;74.29;101634.50;5041461;28;20082;-70
2022/07/06 03:01:32;;;;;;;4.70;1.30;;;;;;;13.33;74.40;101637.31;5073843;28;20028;-70
2022/07/06 03:03:58;;;;;;;4.70;1.40;;;;;;;13.34;74.54;101640.91;5061300;28;20477;-70
2022/07/06 03:06:23;;;;;;;4.75;1.38;;;;;;;13.30;74.61;101637.06;5077865;28;20037;-70
2022/07/06 03:08:49;;;;;;;3.33;1.27;;;;;;;13.28;74.68;101628.94;5061300;28;20033;-70
2022/07/06 03:11:14;;;;;;;4.25;1.30;;;;;;;13.26;74.77;101630.34;5060905;28;20040;-71
2022/07/06 03:13:40;;;;;;;3.22;1.27;;;;;;;13.19;74.72;101631.47;5079201;28;20063;-70
2022/07/06 03:16:05;;;;;;;4.85;1.10;;;;;;;13.21;74.42;101633.97;5077152;28;20044;-70
2022/07/06 03:18:31;;;;;;;3.25;1.30;;;;;;;13.18;74.84;101643.75;5041063;28;20021;-70
2022/07/06 03:20:56;;;;;;;3.92;1.33;;;;;;;13.14;74.68;101639.84;5056416;28;20032;-70
2022/07/06 03:23:22;;;;;;;3.78;1.38;;;;;;;13.13;75.07;101638.19;5044821;28;20036;-71
2022/07/06 03:25:47;;;;;;;4.35;1.45;;;;;;;13.10;74.57;101640.72;5067029;28;20032;-71
2022/07/06 03:28:13;;;;;;;4.20;1.42;;;;;;;13.06;75.04;101631.22;5077499;28;21093;-70
2022/07/06 03:30:38;;;;;;;3.70;1.30;;;;;;;13.04;74.53;101634.31;5078745;28;20497;-70
2022/07/06 03:33:04;;;;;;;2.88;1.17;;;;;;;13.04;74.98;101639.03;5078565;28;20029;-70
2022/07/06 03:35:29;;;;;;;2.70;1.50;;;;;;;12.98;74.50;101635.44;5077091;28;20095;-70
2022/07/06 03:37:55;;;;;;;4.78;1.70;;;;;;;12.97;74.89;101639.34;5044356;28;20469;-70
2022/07/06 03:40:21;;;;;;;3.85;1.50;;;;;;;12.97;75.21;101644.91;5027334;28;20111;-70
2022/07/06 03:42:46;;;;;;;5.68;1.50;;;;;;;12.95;75.21;101639.66;5044303;28;20082;-70
2022/07/06 03:45:12;;;;;;;5.00;1.70;;;;;;;12.93;74.92;101650.25;5060422;28;20033;-70
2022/07/06 03:47:37;;;;;;;3.78;1.30;;;;;;;12.90;75.09;101647.19;5057503;28;20393;-70
2022/07/06 03:50:03;;;;;;;5.95;1.67;;;;;;;12.89;74.82;101654.69;5069364;28;20033;-70
2022/07/06 03:52:29;;;;;;;4.55;1.48;;;;;;;12.85;74.86;101648.03;5057270;28;20071;-70
2022/07/06 03:54:55;;;;;;;3.17;1.60;;;;;;;12.84;74.98;101651.06;5060335;28;20048;-70
2022/07/06 03:57:21;;;;;;;4.97;1.58;;;;;;;12.82;75.75;101654.16;5076553;28;20044;-70
2022/07/06 03:59:46;;;;;;;4.82;1.42;;;;;;;12.80;75.14;101658.34;5060619;28;20420;-70
2022/07/06 04:02:12;;;;;;;2.65;1.20;;;;;;;12.81;74.89;101655.25;5058178;28;20087;-70
2022/07/06 04:04:37;;;;;;;6.03;1.65;;;;;;;12.77;75.29;101648.59;5060243;28;20039;-70
2022/07/06 04:07:03;;;;;;;3.30;1.50;;;;;;;12.75;75.42;101654.44;5060070;28;20025;-70
2022/07/06 04:09:28;;;;;;;2.55;1.40;;;;;;;12.71;75.26;101656.13;5043665;28;20024;-70
2022/07/06 04:11:54;;;;;;;2.50;1.38;;;;;;;12.72;74.97;101655.00;5076508;28;20037;-70
2022/07/06 04:14:19;;;;;;;2.92;1.48;;;;;;;12.69;75.74;101657.53;5059789;28;20107;-70
2022/07/06 04:16:45;;;;;;;2.40;1.25;;;;;;;12.68;75.08;101662.25;5060054;28;20033;-71
2022/07/06 04:19:10;;;;;;;4.93;1.60;;;;;;;12.67;75.12;101666.16;5076290;28;20029;-71
2022/07/06 04:21:36;;;;;;;2.83;1.52;;;;;;;12.68;75.98;101664.22;5076706;28;20029;-71
2022/07/06 04:24:01;;;;;;;3.88;1.38;;;;;;;12.67;75.58;101662.53;5059759;28;20031;-70
2022/07/06 04:26:27;;;;;;;4.35;1.55;;;;;;;12.65;75.97;101657.25;5059482;28;20033;-71
2022/07/06 04:28:52;;;;;;;3.40;1.73;;;;;;;12.62;76.88;101663.38;5076522;28;20032;-70
2022/07/06 04:31:18;;;;;;;5.30;1.73;;;;;;;12.64;76.97;101663.91;5059640;28;20044;-70
2022/07/06 04:33:43;;;;;;;3.90;1.70;;;;;;;12.66;76.24;101658.91;5073666;28;20059;-71
2022/07/06 04:36:09;;;;;;;3.40;1.75;;;;;;;12.72;76.05;101659.75;5058436;28;20033;-70
2022/07/06 04:38:35;;;;;;;5.20;1.67;;;;;;;12.70;77.71;101657.25;5059592;28;20025;-70
2022/07/06 04:41:00;;;;;;;3.53;1.73;;;;;;;12.73;77.72;101662.25;5039381;28;20100;-70
2022/07/06 04:43:26;;;;;;;4.25;1.80;;;;;;;12.77;80.25;101672.84;5072717;28;20362;-71
2022/07/06 04:45:51;;;;;;;3.28;1.80;;;;;;;12.82;81.65;101670.06;5076136;28;20032;-70
2022/07/06 04:48:17;;;;;;;4.25;1.95;;;;;;;12.89;83.77;101676.16;5059385;28;20036;-71
2022/07/06 04:50:42;;;;;;;3.92;1.90;;;;;;;12.95;85.44;101669.47;5073497;28;20049;-71
2022/07/06 04:53:08;;;;;;;3.88;1.45;;;;;;;13.03;81.89;101668.88;5072519;28;20062;-70
2022/07/06 04:55:33;;;;;;;3.88;1.58;;;;;;;13.13;86.12;101666.06;5075948;28;20041;-70
2022/07/06 04:57:59;;;;;;;5.85;1.77;;;;;;;13.22;84.70;101668.28;5075620;28;20053;-70
2022/07/06 05:00:24;;;;;;;3.53;1.80;;;;;;;13.35;85.03;101674.13;5070829;28;20550;-70
2022/07/06 05:02:50;;;;;;;4.68;1.35;;;;;;;13.46;82.02;101677.72;5076828;28;20036;-70
2022/07/06 05:05:15;;;;;;;3.50;2.00;;;;;;;13.59;82.36;101681.84;5077102;28;20025;-70
2022/07/06 05:07:41;;;;;;;3.58;1.63;;;;;;;13.72;81.86;101678.44;5058981;28;20021;-70
2022/07/06 05:10:08;;;;;;;3.92;1.52;;;;;;;13.85;79.41;101676.97;5042200;28;20037;-70
2022/07/06 05:12:33;;;;;;;4.93;1.63;;;;;;;14.01;81.70;101683.28;5058952;28;20038;-70
2022/07/06 05:14:59;;;;;;;6.88;1.70;;;;;;;14.14;80.34;101673.44;5075433;28;20028;-70
2022/07/06 05:17:25;;;;;;;5.05;1.50;;;;;;;14.29;77.90;101676.13;5058873;28;20025;-70
2022/07/06 05:19:50;;;;;;;3.88;1.63;;;;;;;14.42;76.76;101678.25;5054395;28;20040;-70
2022/07/06 05:22:16;;;;;;;4.03;1.40;;;;;;;14.56;75.17;101674.81;5058746;28;20029;-70
2022/07/06 05:24:41;;;;;;;5.50;1.58;;;;;;;14.71;76.59;101677.50;5058816;28;20032;-70
2022/07/06 05:27:07;;;;;;;4.75;1.70;;;;;;;14.86;77.51;101668.94;5055328;28;20028;-71
2022/07/06 05:29:32;;;;;;;4.85;1.65;;;;;;;15.01;73.99;101675.53;5049362;28;20089;-70
2022/07/06 05:31:58;;;;;;;3.60;1.45;;;;;;;15.17;74.04;101675.06;5042005;28;20029;-70
2022/07/06 05:34:23;;;;;;;4.45;1.70;;;;;;;15.36;75.03;101668.69;5058613;28;20031;-70
2022/07/06 05:36:49;;;;;;;6.40;1.52;;;;;;;15.52;74.56;101672.16;5041762;28;20028;-70
2022/07/06 05:39:19;;;;;;;6.15;1.80;;;;;;;15.70;74.89;101679.75;5058856;28;20028;-70
2022/07/06 05:41:45;;;;;;;4.93;1.38;;;;;;;15.88;73.92;101677.28;5043133;28;20476;-70
2022/07/06 05:44:10;;;;;;;5.57;1.77;;;;;;;16.03;74.32;101679.88;5074006;28;20051;-70
2022/07/06 05:46:36;;;;;;;8.60;1.85;;;;;;;16.21;73.98;101681.00;5076472;28;20024;-70
2022/07/06 05:51:45;;;;;;;7.00;2.17;;;;;;;16.51;78.46;101682.50;5074257;28;20025;-71
2022/07/06 05:54:10;;;;;;;7.43;2.17;;;;;;;16.67;75.54;101688.69;5023082;28;20573;-71
2022/07/06 05:56:36;;;;;;;6.25;2.28;;;;;;;16.82;76.42;101688.44;5040420;28;20349;-71
2022/07/06 05:59:01;;;;;;;6.20;2.20;;;;;;;16.98;74.15;101691.81;5058235;28;20094;-71
2022/07/06 06:01:27;;;;;;;6.93;2.30;;;;;;;17.12;76.59;101695.47;5023341;28;20041;-71
2022/07/06 06:03:52;;;;;;;7.20;1.83;;;;;;;17.29;75.13;101694.84;5058003;28;20036;-71
2022/07/06 06:06:18;;;;;;;5.75;1.60;;;;;;;17.45;71.70;101688.94;5041555;28;20362;-71
2022/07/06 06:08:44;;;;;;;6.47;1.60;;;;;;;17.61;71.22;101696.75;5058080;28;20037;-71
2022/07/06 06:11:09;;;;;;;6.88;1.90;;;;;;;17.71;72.61;101687.25;5074535;28;20041;-71
2022/07/06 06:13:35;;;;;;;7.57;2.10;;;;;;;17.85;71.33;101698.50;5041695;28;20036;-71
2022/07/06 06:16:00;;;;;;;7.15;1.67;;;;;;;18.01;70.08;101693.38;5057877;28;20025;-71
2022/07/06 06:18:25;;;;;;;6.97;2.05;;;;;;;18.17;70.02;101694.69;5075833;28;20029;-71
2022/07/06 06:20:51;;;;;;;4.53;1.75;;;;;;;18.31;71.53;101691.84;5057850;28;20465;-71
2022/07/06 06:23:17;;;;;;;6.40;2.47;;;;;;;18.43;72.95;101700.53;5066748;28;20029;-71
2022/07/06 06:25:42;;;;;;;8.20;1.77;;;;;;;18.62;68.29;101697.53;5055915;28;20027;-70
2022/07/06 06:28:09;;;;;;;5.97;1.90;;;;;;;18.74;70.23;101689.38;5078110;28;20473;-71
2022/07/06 06:30:35;;;;;;;3.63;1.33;;;;;;;18.89;68.88;101690.97;5078993;28;20440;-71
2022/07/06 06:33:17;;;;;;;5.28;1.55;;;;;;;19.09;67.09;101694.41;5042140;28;20029;-75
2022/07/06 06:35:50;;;;;;;7.60;2.00;;;;;;;19.27;66.24;101684.84;5058509;28;20028;-68
2022/07/06 06:38:16;;;;;;;4.20;1.73;;;;;;;19.42;65.84;101675.16;5079654;28;20029;-68
2022/07/06 06:40:42;;;;;;;5.43;1.52;;;;;;;19.57;65.32;101682.31;5042560;28;20513;-68
2022/07/06 06:43:07;;;;;;;8.05;1.67;;;;;;;19.69;66.19;101679.72;5062025;28;20039;-68
2022/07/06 06:45:33;;;;;;;9.30;2.30;;;;;;;19.78;68.44;101680.59;5058459;28;20123;-69
2022/07/06 06:47:58;;;;;;;4.75;1.77;;;;;;;19.97;69.26;101688.72;5055893;28;20028;-68
2022/07/06 06:50:24;;;;;;;4.80;1.50;;;;;;;20.19;66.26;101681.28;5055156;28;20024;-68
2022/07/06 06:52:50;;;;;;;6.55;2.03;;;;;;;20.28;67.71;101680.16;5061541;28;20435;-68
2022/07/06 06:55:16;;;;;;;5.03;2.20;;;;;;;20.48;66.23;101683.47;5041518;28;20061;-68
2022/07/06 06:57:41;;;;;;;7.50;1.80;;;;;;;20.61;66.26;101676.81;5070831;28;20040;-68
2022/07/06 07:00:08;;;;;;;5.80;1.60;;;;;;;20.74;67.16;101683.47;5061682;28;20604;-68
2022/07/06 07:02:33;;;;;;;4.63;1.92;;;;;;;20.87;67.38;101685.25;5078415;28;20461;-68
2022/07/06 07:04:59;;;;;;;6.35;2.28;;;;;;;21.07;66.25;101686.53;5061334;28;20098;-68
2022/07/06 07:07:24;;;;;;;5.82;1.83;;;;;;;21.17;66.99;101682.50;5067663;28;20025;-68
2022/07/06 07:09:50;;;;;;;6.78;2.15;;;;;;;21.27;65.59;101693.44;5077187;28;20036;-68
2022/07/06 07:12:16;;;;;;;9.50;1.67;;;;;;;21.41;64.91;101682.75;5044313;28;20040;-68
2022/07/06 07:14:43;;;;;;;5.05;1.40;;;;;;;21.67;64.59;101689.44;5074959;28;21403;-69
2022/07/06 07:17:09;;;;;;;7.85;2.10;;;;;;;21.76;63.26;101687.41;5060789;28;20055;-69
2022/07/06 07:19:37;;;;;;;8.68;1.92;;;;;;;21.90;62.52;101696.47;5060531;28;20032;-68
2022/07/06 07:22:02;;;;;;;5.47;1.40;;;;;;;22.06;63.46;101693.84;5061076;28;20069;-68
2022/07/06 07:24:28;;;;;;;4.22;1.60;;;;;;;22.29;61.74;101694.41;5060205;28;20032;-68
2022/07/06 07:26:53;;;;;;;4.78;1.40;;;;;;;22.44;60.40;101696.59;5060418;28;20496;-69
2022/07/06 07:29:19;;;;;;;6.40;1.67;;;;;;;22.57;62.11;101700.31;5040462;28;20112;-68
2022/07/06 07:31:44;;;;;;;3.75;1.50;;;;;;;22.67;61.37;101693.38;5036436;28;20059;-68
2022/07/06 07:34:10;;;;;;;5.80;1.80;;;;;;;22.82;59.83;101697.56;5024362;28;20120;-68
2022/07/06 07:36:35;;;;;;;5.25;1.58;;;;;;;22.92;59.35;101697.13;5060713;28;20039;-68
2022/07/06 07:39:01;;;;;;;6.05;1.92;;;;;;;23.01;58.67;101700.69;5044207;28;20044;-68
2022/07/06 07:41:26;;;;;;;4.45;1.55;;;;;;;23.11;58.81;101700.25;5060835;28;20048;-68
2022/07/06 07:43:52;;;;;;;4.78;1.30;;;;;;;23.28;58.02;101704.06;5060655;28;20024;-68
2022/07/06 07:46:17;;;;;;;5.45;1.65;;;;;;;23.42;57.60;101705.38;5060608;28;20435;-68
2022/07/06 07:48:43;;;;;;;3.58;1.30;;;;;;;23.56;58.04;101709.88;5041600;28;20028;-68
2022/07/06 07:51:08;;;;;;;9.05;1.67;;;;;;;23.70;56.97;101707.53;5060591;28;20036;-71
2022/07/06 07:53:34;;;;;;;5.35;1.70;;;;;;;23.82;56.04;101704.72;5057031;28;20052;-71
2022/07/06 07:56:00;;;;;;;5.63;1.52;;;;;;;23.88;55.25;101698.81;5078206;28;20036;-71
2022/07/06 07:58:26;;;;;;;7.85;1.95;;;;;;;23.94;55.20;101705.91;5076972;28;20029;-71
2022/07/06 08:00:52;;;;;;;9.23;1.77;;;;;;;24.08;54.91;101701.50;5077432;28;20113;-70
2022/07/06 08:03:18;;;;;;;7.55;2.03;;;;;;;24.12;53.24;101698.75;5078102;28;20024;-70
2022/07/06 08:05:43;;;;;;;2.95;1.40;;;;;;;24.27;54.68;101691.53;5077951;28;20079;-70
2022/07/06 08:08:09;;;;;;;5.45;1.77;;;;;;;24.33;53.37;101692.91;5078142;28;20021;-70
2022/07/06 08:10:34;;;;;;;5.93;1.98;;;;;;;24.39;52.82;101688.63;5077805;28;20028;-70
2022/07/06 08:13:00;;;;;;;5.78;1.98;;;;;;;24.48;52.26;101692.16;5077738;28;20048;-70
2022/07/06 08:15:25;;;;;;;5.20;2.35;;;;;;;24.47;51.85;101698.22;5077861;28;20029;-71
2022/07/06 08:17:51;;;;;;;7.40;2.40;;;;;;;24.51;50.41;101696.31;5076483;28;20028;-70
2022/07/06 08:20:16;;;;;;;5.70;2.20;;;;;;;24.54;50.11;101695.56;5073568;28;20110;-70
2022/07/06 08:22:42;;;;;;;7.80;2.20;;;;;;;24.66;50.28;101697.56;5077627;28;20036;-70
2022/07/06 08:25:08;;;;;;;6.97;2.15;;;;;;;24.69;50.38;101697.66;5076444;28;20028;-70
2022/07/06 08:27:34;;;;;;;5.38;1.85;;;;;;;24.77;50.75;101697.84;5077588;28;20095;-70
2022/07/06 08:30:00;;;;;;;5.47;2.00;;;;;;;24.92;49.83;101689.38;5077549;28;20039;-70
2022/07/06 08:32:26;;;;;;;5.82;1.83;;;;;;;24.81;50.05;101693.94;5077787;28;20028;-70
2022/07/06 08:34:51;;;;;;;4.57;1.90;;;;;;;24.97;49.62;101693.97;5077401;28;20441;-70
2022/07/06 08:37:17;;;;;;;4.60;1.95;;;;;;;25.02;49.32;101681.47;5077079;28;20044;-70
2022/07/06 08:39:43;;;;;;;3.88;1.50;;;;;;;25.13;48.83;101674.06;5076214;28;20533;-70
2022/07/06 08:42:08;;;;;;;8.32;1.80;;;;;;;25.23;49.01;101679.25;5077480;28;20052;-70
2022/07/06 08:44:35;;;;;;;5.43;1.90;;;;;;;25.22;48.09;101680.44;5059551;28;20049;-70
2022/07/06 08:47:02;;;;;;;3.88;1.85;;;;;;;25.36;48.19;101675.13;5058756;28;20381;-70
2022/07/06 08:49:28;;;;;;;4.00;1.85;;;;;;;25.54;47.89;101675.56;5067222;28;20029;-70
2022/07/06 08:51:53;;;;;;;4.63;1.70;;;;;;;25.69;47.14;101673.91;5058984;28;20037;-70
2022/07/06 08:54:19;;;;;;;5.88;1.98;;;;;;;25.85;47.71;101673.88;5076245;28;20040;-71
2022/07/06 08:56:45;;;;;;;6.47;1.80;;;;;;;25.93;46.77;101687.09;5074923;28;20040;-70
2022/07/06 08:59:11;;;;;;;5.15;1.85;;;;;;;25.98;46.76;101681.13;5075944;28;20512;-71
2022/07/06 09:01:37;;;;;;;3.67;1.70;;;;;;;25.99;45.66;101682.78;5059326;28;20029;-70
2022/07/06 09:04:03;;;;;;;6.88;1.83;;;;;;;26.06;45.17;101693.50;5058668;28;20066;-70
2022/07/06 09:06:28;;;;;;;5.05;1.92;;;;;;;26.11;44.86;101692.41;5076853;28;20404;-70
2022/07/06 09:08:55;;;;;;;6.15;1.83;;;;;;;26.13;45.44;101675.75;5076690;28;20056;-70
2022/07/06 09:11:25;;;;;;;4.55;1.40;;;;;;;26.16;45.73;101678.69;5076267;28;20029;-70
2022/07/06 09:13:51;;;;;;;4.80;1.50;;;;;;;26.25;46.13;101672.78;5075758;28;20028;-70
2022/07/06 09:16:17;;;;;;;3.05;1.40;;;;;;;26.33;45.29;101674.56;5076914;28;20081;-70
2022/07/06 09:18:46;;;;;;;5.32;1.50;;;;;;;26.41;44.50;101684.94;5076620;28;20059;-70
2022/07/06 09:21:11;;;;;;;2.67;1.10;;;;;;;26.43;44.08;101687.38;5076402;28;20029;-70
2022/07/06 09:23:37;;;;;;;3.88;1.65;;;;;;;26.33;44.46;101683.13;5075433;28;20036;-70
2022/07/06 09:26:04;;;;;;;5.53;1.88;;;;;;;26.30;43.98;101686.72;5055303;28;20055;-70
2022/07/06 09:28:44;;;;;;;5.47;1.85;;;;;;;26.08;44.17;101699.66;5072992;28;20024;-70
2022/07/06 09:31:10;;;;;;;8.23;2.05;;;;;;;26.01;44.86;101711.69;5071566;28;20043;-70
2022/07/06 09:33:35;;;;;;;4.60;1.40;;;;;;;25.91;44.06;101697.19;5076324;28;20036;-70
2022/07/06 09:36:02;;;;;;;6.40;1.60;;;;;;;25.84;43.15;101701.53;5076432;28;20028;-70
2022/07/06 09:38:27;;;;;;;3.58;1.40;;;;;;;25.87;43.37;101697.13;5075995;28;20123;-70
2022/07/06 09:40:53;;;;;;;3.42;1.40;;;;;;;25.92;44.15;101696.84;5075943;28;20032;-70
2022/07/06 09:43:19;;;;;;;7.20;2.00;;;;;;;26.06;44.41;101708.53;5074909;28;20028;-70
2022/07/06 09:45:50;;;;;;;5.13;1.70;;;;;;;26.32;43.54;101698.53;5074708;28;20028;-71
2022/07/06 09:48:18;;;;;;;4.22;1.35;;;;;;;26.57;43.66;101686.88;5074759;28;20086;-70
2022/07/06 09:50:57;;;;;;;2.40;1.40;;;;;;;26.70;42.04;101696.94;5070305;28;20035;-71
2022/07/06 09:53:26;;;;;;;2.58;0.90;;;;;;;26.66;40.48;101710.25;5075623;28;20058;-70
2022/07/06 09:55:53;;;;;;;3.72;1.10;;;;;;;26.65;40.70;101708.63;5076059;28;20084;-71
2022/07/06 09:58:19;;;;;;;4.32;1.40;;;;;;;26.60;40.98;101689.81;5073012;28;20029;-70
2022/07/06 10:00:45;;;;;;;4.30;1.33;;;;;;;26.77;40.25;101690.53;5057255;28;20124;-71
2022/07/06 10:03:11;;;;;;;4.75;1.20;;;;;;;26.76;40.94;101695.41;5074969;28;20032;-70
2022/07/06 10:05:42;;;;;;;2.13;1.08;;;;;;;26.75;41.87;101696.63;5075805;28;20162;-70
2022/07/06 10:08:10;;;;;;;3.13;1.25;;;;;;;26.68;41.41;101700.16;5075568;28;20043;-70
2022/07/06 10:10:37;;;;;;;4.43;1.20;;;;;;;26.74;41.28;101695.81;5074360;28;20024;-70
2022/07/06 10:13:05;;;;;;;3.72;1.20;;;;;;;26.80;41.71;101699.19;5072381;28;20072;-70
2022/07/06 10:15:31;;;;;;;4.95;1.42;;;;;;;26.95;41.78;101692.53;5046966;28;20086;-70
2022/07/06 10:17:57;;;;;;;2.83;1.20;;;;;;;27.08;40.34;101689.50;5074652;28;20047;-70
2022/07/06 10:20:23;;;;;;;5.50;1.40;;;;;;;27.23;41.13;101687.78;5100683;28;20469;-70
2022/07/06 10:22:48;;;;;;;4.60;1.40;;;;;;;27.48;40.10;101686.19;5075791;28;20029;-70
2022/07/06 10:25:16;;;;;;;2.45;1.00;;;;;;;27.66;39.21;101689.31;5075237;28;20064;-70
2022/07/06 10:27:41;;;;;;;4.18;1.30;;;;;;;27.82;38.49;101686.34;5075318;28;20024;-70
2022/07/06 10:30:08;;;;;;;3.80;1.45;;;;;;;27.93;38.63;101687.31;5027568;28;20028;-73
2022/07/06 10:32:33;;;;;;;2.63;1.15;;;;;;;27.93;39.02;101692.22;5072435;28;20111;-72
2022/07/06 10:34:59;;;;;;;2.45;1.00;;;;;;;28.03;38.66;101688.69;5074418;28;20040;-71
2022/07/06 10:37:25;;;;;;;3.38;1.20;;;;;;;27.85;37.42;101679.84;5074274;28;20033;-71
2022/07/06 10:42:42;;;;;;;2.05;1.17;;;;;;;27.63;39.30;101675.81;5071061;28;20031;-72
2022/07/06 10:45:08;;;;;;;2.92;1.00;;;;;;;27.46;38.70;101680.03;5075487;28;20043;-72
2022/07/06 10:47:34;;;;;;;2.10;0.80;;;;;;;27.56;39.21;101687.94;5073857;28;20029;-72
2022/07/06 10:50:00;;;;;;;2.83;1.05;;;;;;;27.63;38.18;101690.09;5055896;28;20024;-72
2022/07/06 10:53:00;;;;;;;1.48;0.77;;;;;;;27.75;38.24;101691.91;5064419;28;20025;-72
2022/07/06 10:55:29;;;;;;;2.92;1.05;;;;;;;27.75;38.55;101680.47;5073849;28;20055;-72
2022/07/06 10:57:55;;;;;;;2.53;0.80;;;;;;;27.90;38.42;101684.41;5073537;28;20033;-72
2022/07/06 11:00:20;;;;;;;2.22;0.80;;;;;;;28.01;38.76;101685.41;5075122;28;20528;-72
2022/07/06 11:02:46;;;;;;;5.15;0.90;;;;;;;28.13;37.94;101685.16;5073182;28;20082;-72
2022/07/06 11:05:12;;;;;;;3.30;0.93;;;;;;;28.24;38.07;101674.69;5074145;28;20044;-72
2022/07/06 11:07:49;;;;;;;3.13;0.80;;;;;;;28.46;37.01;101669.31;5075427;28;20025;-72
2022/07/06 11:10:14;;;;;;;1.63;0.75;;;;;;;28.60;36.97;101668.66;5069597;28;20036;-71
2022/07/06 11:12:44;;;;;;;1.55;0.70;;;;;;;28.69;36.32;101681.41;5077274;28;20036;-72
2022/07/06 11:15:10;;;;;;;2.95;0.70;;;;;;;28.74;36.82;101685.97;5068729;28;20111;-72
2022/07/06 11:17:35;;;;;;;2.65;0.90;;;;;;;28.77;36.34;101670.88;5077778;28;20032;-72
2022/07/06 11:20:11;;;;;;;2.47;1.00;;;;;;;29.00;36.86;101649.88;5059863;28;20078;-71
2022/07/06 11:22:37;;;;;;;2.65;0.90;;;;;;;29.14;36.54;101647.19;5078788;28;20092;-72
2022/07/06 11:25:03;;;;;;;2.30;0.90;;;;;;;29.22;37.00;101640.31;5077684;28;20062;-72
2022/07/06 11:27:29;;;;;;;2.80;0.77;;;;;;;29.35;36.51;101644.50;5077744;28;20021;-71